Time;durP1;ratioP1;P1;durP2;ratioP2;P2;SDS_P1;SDS_P2;PMS_P1;PMS_P2;Temp;Humidity;BMP_temperature;BMP_pressure;BME280_temperature;BME280_humidity;BME280_pressure;Samples;Min_cycle;Max_cycle;Signal;HPM_P1;HPM_P2
2022/01/30 00:00:56;;;;;;;1.37;1.07;;;7.50;99.90;;;;;;5048536;28;20445;-80
2022/01/30 00:03:25;;;;;;;0.57;0.57;;;7.20;1.00;;;;;;5048048;28;21265;-80
2022/01/30 00:05:54;;;;;;;1.20;1.07;;;7.10;99.90;;;;;;5041187;28;20497;-80
2022/01/30 00:08:22;;;;;;;0.57;0.57;;;6.90;1.00;;;;;;5045123;28;20507;-79
2022/01/30 00:10:56;;;;;;;0.60;0.60;;;7.10;99.90;;;;;;5042141;28;20460;-79
2022/01/30 00:13:27;;;;;;;0.70;0.63;;;7.30;99.90;;;;;;5057539;28;21174;-79
2022/01/30 00:15:57;;;;;;;0.40;0.40;;;7.20;99.90;;;;;;5045697;28;20464;-79
2022/01/30 00:18:42;;;;;;;0.83;0.50;;;7.40;1.00;;;;;;5051177;28;20483;-79
2022/01/30 00:21:16;;;;;;;0.67;0.67;;;7.40;1.00;;;;;;5051895;28;20519;-79
2022/01/30 00:23:48;;;;;;;0.40;0.40;;;7.60;1.00;;;;;;5054672;28;20473;-79
2022/01/30 00:26:18;;;;;;;0.60;0.43;;;7.70;1.00;;;;;;5040830;28;20965;-79
2022/01/30 00:28:47;;;;;;;0.97;0.50;;;7.80;99.90;;;;;;5050078;28;20488;-79
2022/01/30 00:31:19;;;;;;;0.57;0.50;;;7.90;1.00;;;;;;5047484;28;21049;-79
2022/01/30 00:33:53;;;;;;;0.50;0.50;;;8.00;99.90;;;;;;5049882;28;20460;-79
2022/01/30 00:36:22;;;;;;;0.40;0.40;;;8.00;1.00;;;;;;5047602;28;20446;-79
2022/01/30 00:38:50;;;;;;;0.50;0.50;;;8.10;99.90;;;;;;5049830;28;21156;-79
2022/01/30 00:41:18;;;;;;;0.47;0.47;;;8.10;99.90;;;;;;5051931;28;20458;-79
2022/01/30 00:43:47;;;;;;;0.50;0.50;;;8.10;99.90;;;;;;5064610;28;20517;-79
2022/01/30 00:46:17;;;;;;;0.90;0.90;;;8.30;99.90;;;;;;5039446;28;20462;-79
2022/01/30 00:48:45;;;;;;;0.50;0.50;;;7.90;1.00;;;;;;5048870;28;20473;-79
2022/01/30 00:51:16;;;;;;;1.13;0.60;;;8.00;1.00;;;;;;5055901;28;20458;-79
2022/01/30 00:53:44;;;;;;;0.60;0.60;;;8.00;99.90;;;;;;5053276;28;20482;-79
2022/01/30 00:56:13;;;;;;;0.50;0.50;;;7.90;1.00;;;;;;5054880;28;20460;-78
2022/01/30 00:58:41;;;;;;;0.70;0.70;;;7.70;1.00;;;;;;5048746;28;20508;-79
2022/01/30 01:01:10;;;;;;;0.63;0.43;;;7.80;1.00;;;;;;5042513;28;20473;-79
2022/01/30 01:03:40;;;;;;;0.47;0.43;;;7.90;99.90;;;;;;5053574;28;20458;-79
2022/01/30 01:06:08;;;;;;;0.50;0.50;;;8.00;1.00;;;;;;5047928;28;20458;-79
2022/01/30 01:08:48;;;;;;;0.90;0.63;;;7.90;1.00;;;;;;5050164;28;20481;-79
2022/01/30 01:11:50;;;;;;;0.63;0.60;;;7.90;1.00;;;;;;5051087;28;20468;-80
2022/01/30 01:25:10;;;;;;;0.53;0.50;;;7.80;99.90;;;;;;5043900;28;20462;-78
2022/01/30 01:27:38;;;;;;;0.53;0.53;;;7.80;94.00;;;;;;5042930;28;20597;-79
2022/01/30 01:30:08;;;;;;;0.60;0.60;;;7.70;99.90;;;;;;5038639;28;20462;-80
2022/01/30 01:32:36;;;;;;;0.63;0.53;;;7.60;1.00;;;;;;5047149;28;20457;-80
2022/01/30 01:35:07;;;;;;;0.50;0.50;;;7.70;1.00;;;;;;5045853;28;20471;-81
2022/01/30 01:37:35;;;;;;;0.60;0.60;;;7.70;99.90;;;;;;5033276;28;20477;-79
2022/01/30 01:40:04;;;;;;;1.07;0.70;;;7.80;99.90;;;;;;5047070;28;20457;-80
2022/01/30 01:42:35;;;;;;;0.73;0.60;;;7.70;99.90;;;;;;5052693;28;20462;-80
2022/01/30 01:45:04;;;;;;;0.60;0.60;;;8.00;99.90;;;;;;5037074;28;20508;-80
2022/01/30 01:47:33;;;;;;;0.67;0.67;;;7.70;99.90;;;;;;5053762;28;20472;-80
2022/01/30 01:50:02;;;;;;;0.70;0.50;;;7.70;1.00;;;;;;5049698;28;20588;-80
2022/01/30 01:52:32;;;;;;;0.57;0.50;;;7.80;28.40;;;;;;5051613;28;20959;-82
2022/01/30 01:55:05;;;;;;;0.60;0.60;;;7.70;1.00;;;;;;5045521;28;20465;-81
2022/01/30 01:57:33;;;;;;;0.67;0.63;;;7.60;1.00;;;;;;5046261;28;21194;-80
2022/01/30 02:00:01;;;;;;;0.80;0.67;;;7.60;22.70;;;;;;5048678;28;20478;-80
2022/01/30 02:02:30;;;;;;;0.50;0.50;;;7.70;1.00;;;;;;5050699;28;20448;-80
2022/01/30 02:05:01;;;;;;;0.73;0.63;;;7.80;99.90;;;;;;5047553;28;20474;-81
2022/01/30 02:10:22;;;;;;;0.70;0.70;;;7.80;99.90;;;;;;5048466;28;20514;-80
2022/01/30 02:12:54;;;;;;;0.53;0.53;;;7.90;99.90;;;;;;5055466;28;20459;-80
2022/01/30 02:23:55;;;;;;;0.67;0.67;;;7.50;1.00;;;;;;5040003;28;20462;-79
2022/01/30 02:24:11;;;;;;;0.70;0.70;;;7.60;1.00;;;;;;5039181;28;20462;-81
2022/01/30 02:26:42;;;;;;;0.80;0.70;;;7.60;1.00;;;;;;5045756;28;20446;-80
2022/01/30 02:29:12;;;;;;;1.07;0.60;;;7.90;1.00;;;;;;5053692;28;20469;-80
2022/01/30 02:31:42;;;;;;;0.63;0.63;;;7.60;99.90;;;;;;5046823;28;20686;-79
2022/01/30 02:34:10;;;;;;;1.10;0.70;;;7.60;38.70;;;;;;5054579;28;20495;-80
2022/01/30 02:36:47;;;;;;;0.63;0.63;;;7.50;1.00;;;;;;5050163;28;20444;-80
2022/01/30 02:39:18;;;;;;;0.63;0.60;;;7.40;1.00;;;;;;5045026;28;20462;-81
2022/01/30 02:41:47;;;;;;;0.60;0.60;;;7.50;1.00;;;;;;5042747;28;20956;-80
2022/01/30 02:44:20;;;;;;;0.80;0.80;;;7.60;99.90;;;;;;5047256;28;20532;-80
2022/01/30 02:46:51;;;;;;;0.70;0.70;;;7.70;8.60;;;;;;5047827;28;20839;-80
2022/01/30 02:49:43;;;;;;;0.60;0.60;;;7.70;99.90;;;;;;5059198;28;20480;-81
2022/01/30 02:52:12;;;;;;;0.60;0.60;;;7.60;99.90;;;;;;5045599;28;20464;-81
2022/01/30 02:54:42;;;;;;;0.60;0.60;;;8.00;1.00;;;;;;5048063;28;20952;-80
2022/01/30 02:57:10;;;;;;;0.70;0.67;;;7.90;1.00;;;;;;5054625;28;20485;-82
2022/01/30 02:59:39;;;;;;;0.60;0.60;;;7.90;1.00;;;;;;5051446;28;20444;-80
2022/01/30 03:02:07;;;;;;;0.70;0.70;;;7.60;99.90;;;;;;5047949;28;21286;-80
2022/01/30 03:04:36;;;;;;;0.60;0.60;;;7.50;1.00;;;;;;5056003;28;20461;-80
2022/01/30 03:07:04;;;;;;;0.60;0.60;;;7.50;99.90;;;;;;5049545;28;20485;-80
2022/01/30 03:09:32;;;;;;;0.60;0.50;;;7.60;1.00;;;;;;5057899;28;21328;-80
2022/01/30 03:12:03;;;;;;;0.63;0.63;;;7.60;99.90;;;;;;5047195;28;20450;-80
2022/01/30 03:14:31;;;;;;;0.53;0.50;;;7.70;38.20;;;;;;5047687;28;20459;-81
2022/01/30 03:17:00;;;;;;;0.83;0.50;;;7.90;99.90;;;;;;5044860;28;20470;-81
2022/01/30 03:19:28;;;;;;;0.60;0.60;;;7.90;99.90;;;;;;5049149;28;20454;-81
2022/01/30 03:21:56;;;;;;;0.60;0.60;;;8.00;99.90;;;;;;5045144;28;20457;-79
2022/01/30 03:24:24;;;;;;;1.60;0.70;;;8.10;99.90;;;;;;5074030;28;20454;-80
2022/01/30 03:26:52;;;;;;;0.93;0.50;;;8.20;1.00;;;;;;5049598;28;20845;-80
2022/01/30 03:29:22;;;;;;;1.40;0.60;;;8.20;99.90;;;;;;5050242;28;20619;-80
2022/01/30 03:31:50;;;;;;;2.10;0.60;;;8.10;1.00;;;;;;5050277;28;20796;-79
2022/01/30 03:34:19;;;;;;;0.60;0.60;;;8.00;99.90;;;;;;5050456;28;21016;-80
2022/01/30 03:36:47;;;;;;;4.97;0.87;;;7.80;1.00;;;;;;5053052;28;20480;-80
2022/01/30 03:39:15;;;;;;;0.50;0.50;;;7.70;99.90;;;;;;5049879;28;20462;-79
2022/01/30 03:41:43;;;;;;;0.53;0.53;;;7.80;99.90;;;;;;5048547;28;20465;-80
2022/01/30 03:44:11;;;;;;;0.67;0.67;;;7.90;1.00;;;;;;5048391;28;20527;-80
2022/01/30 03:46:41;;;;;;;0.60;0.60;;;7.90;99.90;;;;;;5046610;28;20815;-79
2022/01/30 03:49:22;;;;;;;1.47;0.73;;;8.00;99.90;;;;;;5048111;28;20477;-79
2022/01/30 03:51:50;;;;;;;0.60;0.60;;;7.90;99.90;;;;;;5047063;28;20466;-80
2022/01/30 03:54:19;;;;;;;0.60;0.57;;;8.20;41.00;;;;;;5048709;28;20453;-80
2022/01/30 03:56:47;;;;;;;1.10;0.83;;;8.10;1.00;;;;;;5059734;28;20545;-80
2022/01/30 03:59:15;;;;;;;0.50;0.50;;;8.20;64.50;;;;;;5053331;28;20465;-80
2022/01/30 04:01:45;;;;;;;0.50;0.50;;;8.40;1.00;;;;;;5045057;28;20510;-80
2022/01/30 04:04:13;;;;;;;0.53;0.53;;;8.30;99.90;;;;;;5048370;28;21024;-80
2022/01/30 04:06:42;;;;;;;0.80;0.63;;;8.20;1.00;;;;;;5043369;28;20481;-81
2022/01/30 04:09:11;;;;;;;0.60;0.60;;;8.00;99.90;;;;;;5047868;28;20485;-80
2022/01/30 04:11:39;;;;;;;1.07;0.47;;;8.00;99.90;;;;;;5057654;28;20453;-81
2022/01/30 04:14:08;;;;;;;0.60;0.60;;;8.00;99.90;;;;;;5048879;28;20832;-81
2022/01/30 04:16:37;;;;;;;0.70;0.70;;;8.10;99.90;;;;;;5050393;28;20461;-81
2022/01/30 04:19:07;;;;;;;0.70;0.70;;;8.10;1.00;;;;;;5048953;28;20470;-81
2022/01/30 04:21:35;;;;;;;0.60;0.50;;;8.20;99.90;;;;;;5053782;28;20451;-81
2022/01/30 04:24:03;;;;;;;2.20;1.23;;;8.30;1.00;;;;;;5043349;28;20516;-82
2022/01/30 04:26:32;;;;;;;1.77;0.70;;;8.40;99.90;;;;;;5046264;28;20480;-82
2022/01/30 04:29:01;;;;;;;0.90;0.90;;;8.40;16.30;;;;;;5044220;28;20517;-81
2022/01/30 04:31:29;;;;;;;3.20;0.93;;;8.40;99.90;;;;;;5049815;28;20457;-80
2022/01/30 04:33:58;;;;;;;3.40;3.07;;;8.40;99.90;;;;;;5036176;28;20455;-80
2022/01/30 04:36:33;;;;;;;1.10;1.00;;;8.40;17.10;;;;;;5050787;28;20611;-81
2022/01/30 04:39:12;;;;;;;1.43;0.90;;;8.50;1.00;;;;;;5040368;28;20565;-81
2022/01/30 04:42:03;;;;;;;1.40;1.20;;;8.50;99.90;;;;;;5052497;28;20528;-81
2022/01/30 04:53:13;;;;;;;2.37;1.20;;;8.40;62.90;;;;;;5047608;28;20466;-81
2022/01/30 04:58:31;;;;;;;2.63;1.20;;;8.50;1.00;;;;;;5041501;28;20510;-81
2022/01/30 05:01:08;;;;;;;1.33;1.07;;;8.40;1.00;;;;;;5054772;28;20465;-81
2022/01/30 05:03:57;;;;;;;2.70;1.20;;;8.40;1.00;;;;;;5051957;28;20450;-81
2022/01/30 05:06:34;;;;;;;4.40;1.50;;;8.40;1.00;;;;;;5042293;28;20887;-80
2022/01/30 05:09:04;;;;;;;6.93;1.77;;;8.50;1.00;;;;;;5052822;28;20477;-81
2022/01/30 05:11:32;;;;;;;4.13;1.90;;;8.50;99.90;;;;;;5055022;28;20469;-81
2022/01/30 05:14:02;;;;;;;1.33;1.23;;;8.50;99.90;;;;;;5055673;28;20495;-80
2022/01/30 05:16:33;;;;;;;1.70;1.40;;;8.50;99.90;;;;;;5045310;28;20464;-81
2022/01/30 05:19:02;;;;;;;3.53;1.40;;;8.50;99.90;;;;;;5037474;28;20876;-80
2022/01/30 05:21:31;;;;;;;6.43;1.50;;;8.50;99.90;;;;;;5048219;28;21028;-81
2022/01/30 05:23:59;;;;;;;1.80;1.17;;;8.50;99.90;;;;;;5048440;28;20478;-80
2022/01/30 05:26:29;;;;;;;1.27;1.17;;;8.50;99.90;;;;;;5049802;28;20465;-80
2022/01/30 05:28:58;;;;;;;1.33;1.10;;;8.50;99.90;;;;;;5050163;28;20484;-81
2022/01/30 05:31:27;;;;;;;1.50;1.20;;;8.60;99.90;;;;;;5046928;28;20469;-81
2022/01/30 05:33:56;;;;;;;1.40;1.30;;;8.50;99.90;;;;;;5057015;28;20508;-80
2022/01/30 05:36:25;;;;;;;2.87;1.10;;;8.50;75.30;;;;;;5054690;28;20505;-80
2022/01/30 05:38:53;;;;;;;4.87;1.47;;;8.50;71.70;;;;;;5050226;28;20458;-81
2022/01/30 05:41:23;;;;;;;3.03;1.40;;;8.50;24.30;;;;;;5041664;28;20461;-81
2022/01/30 05:43:57;;;;;;;3.10;0.90;;;8.50;1.00;;;;;;5051967;28;20473;-80
2022/01/30 05:46:32;;;;;;;1.53;1.00;;;8.50;1.00;;;;;;5051123;28;20547;-80
2022/01/30 05:49:03;;;;;;;3.63;1.10;;;8.50;1.00;;;;;;5047255;28;20475;-81
2022/01/30 05:51:31;;;;;;;3.00;1.10;;;8.50;1.00;;;;;;5045897;28;20459;-81
2022/01/30 05:53:59;;;;;;;4.40;1.20;;;8.40;1.00;;;;;;5052967;28;20465;-80
2022/01/30 05:56:28;;;;;;;2.07;1.70;;;8.40;1.00;;;;;;5051955;28;20539;-81
2022/01/30 05:58:57;;;;;;;3.63;1.40;;;8.50;1.00;;;;;;5047681;28;20450;-81
2022/01/30 06:01:26;;;;;;;2.30;0.80;;;8.50;1.00;;;;;;5048291;28;20462;-80
2022/01/30 06:03:54;;;;;;;2.50;1.07;;;8.40;1.00;;;;;;5054215;28;20495;-81
2022/01/30 06:06:22;;;;;;;1.50;1.10;;;8.40;1.00;;;;;;5044651;28;20489;-82
2022/01/30 06:09:01;;;;;;;2.80;0.97;;;8.40;1.00;;;;;;5053749;28;20451;-81
2022/01/30 06:11:29;;;;;;;3.80;1.03;;;8.40;1.00;;;;;;5045281;28;20476;-81
2022/01/30 06:13:59;;;;;;;2.83;1.00;;;8.40;1.00;;;;;;5060357;28;20453;-81
2022/01/30 06:16:27;;;;;;;3.90;1.20;;;8.50;1.00;;;;;;5045834;28;20475;-82
2022/01/30 06:18:55;;;;;;;5.43;1.60;;;8.50;1.00;;;;;;5045173;28;20553;-82
2022/01/30 06:21:23;;;;;;;5.63;1.00;;;8.40;1.00;;;;;;5046786;28;20453;-81
2022/01/30 06:23:52;;;;;;;5.40;1.30;;;8.40;99.90;;;;;;5044999;28;20963;-81
2022/01/30 06:26:20;;;;;;;4.03;1.10;;;8.30;99.90;;;;;;5048074;28;20543;-81
2022/01/30 06:28:48;;;;;;;1.53;1.30;;;8.40;99.90;;;;;;5049111;28;20458;-80
2022/01/30 06:31:17;;;;;;;1.60;1.00;;;8.40;99.90;;;;;;5049990;28;21055;-80
2022/01/30 06:33:46;;;;;;;2.40;1.30;;;8.40;99.90;;;;;;5050514;28;20439;-81
2022/01/30 06:36:14;;;;;;;5.93;1.30;;;8.40;99.90;;;;;;5044741;28;20197;-80
2022/01/30 06:38:42;;;;;;;3.23;1.47;;;8.40;99.90;;;;;;5048556;28;21081;-80
2022/01/30 06:41:11;;;;;;;3.53;1.20;;;8.40;99.90;;;;;;5048353;28;20469;-80
2022/01/30 06:43:39;;;;;;;2.27;1.20;;;8.50;99.90;;;;;;5047529;28;20466;-78
2022/01/30 06:46:10;;;;;;;3.50;1.10;;;8.40;99.90;;;;;;5052526;28;20476;-81
2022/01/30 06:48:40;;;;;;;3.70;1.27;;;8.40;99.90;;;;;;5045639;28;20476;-79
2022/01/30 06:51:08;;;;;;;6.85;1.50;;;8.40;99.90;;;;;;5044882;28;20549;-79
2022/01/30 06:53:36;;;;;;;7.67;1.50;;;8.30;99.90;;;;;;5065387;28;20198;-79
2022/01/30 06:56:07;;;;;;;3.97;1.73;;;8.30;99.90;;;;;;5048070;28;20547;-79
2022/01/30 06:58:35;;;;;;;5.90;2.33;;;8.30;99.90;;;;;;5041042;28;20484;-81
2022/01/30 07:01:04;;;;;;;4.83;1.67;;;8.20;99.90;;;;;;5043083;28;20204;-80
2022/01/30 07:03:32;;;;;;;2.67;1.30;;;8.30;99.90;;;;;;5049233;28;20462;-80
2022/01/30 07:06:02;;;;;;;7.93;1.60;;;8.30;99.90;;;;;;5047542;28;20470;-79
2022/01/30 07:08:30;;;;;;;7.33;1.90;;;8.30;99.90;;;;;;5038591;28;20481;-79
2022/01/30 07:10:58;;;;;;;3.77;1.27;;;8.30;99.90;;;;;;5044303;28;20504;-80
2022/01/30 07:13:26;;;;;;;1.80;1.00;;;8.30;99.90;;;;;;5050551;28;20961;-80
2022/01/30 07:15:55;;;;;;;2.70;1.00;;;8.30;99.90;;;;;;5042224;28;20452;-80
2022/01/30 07:18:23;;;;;;;1.93;1.30;;;8.30;99.90;;;;;;5043120;28;20495;-80
2022/01/30 07:20:51;;;;;;;1.40;1.20;;;8.30;99.90;;;;;;5052157;28;20453;-79
2022/01/30 07:23:21;;;;;;;6.82;1.98;;;8.30;99.90;;;;;;5045544;28;20656;-80
2022/01/30 07:25:49;;;;;;;2.70;1.40;;;8.30;99.90;;;;;;5054402;28;20202;-80
2022/01/30 07:28:17;;;;;;;6.37;1.40;;;8.30;99.90;;;;;;5048928;28;20484;-81
2022/01/30 07:30:45;;;;;;;4.73;1.53;;;8.60;99.90;;;;;;5056083;28;20909;-80
2022/01/30 07:33:14;;;;;;;2.60;1.43;;;8.40;99.90;;;;;;5050362;28;20509;-80
2022/01/30 07:35:42;;;;;;;1.77;1.30;;;8.40;99.90;;;;;;5056251;28;20474;-80
2022/01/30 07:38:10;;;;;;;2.03;1.53;;;8.40;99.90;;;;;;5050733;28;20483;-80
2022/01/30 07:40:41;;;;;;;5.17;1.40;;;8.40;99.90;;;;;;5054492;28;20461;-80
2022/01/30 07:43:10;;;;;;;1.60;1.43;;;8.40;99.90;;;;;;5058602;28;20460;-80
2022/01/30 07:45:38;;;;;;;4.40;2.10;;;8.40;99.90;;;;;;5054207;28;20451;-80
2022/01/30 07:48:07;;;;;;;2.40;1.50;;;8.40;99.90;;;;;;5050480;28;20493;-77
2022/01/30 07:50:35;;;;;;;6.97;1.50;;;8.40;99.90;;;;;;5042224;28;20483;-76
2022/01/30 07:53:03;;;;;;;3.60;1.33;;;8.30;99.90;;;;;;5043751;28;20467;-80
2022/01/30 07:55:31;;;;;;;5.27;1.80;;;8.40;99.90;;;;;;5041007;28;20959;-80
2022/01/30 07:58:01;;;;;;;2.00;1.30;;;8.40;99.90;;;;;;5044706;28;20482;-80
2022/01/30 08:00:29;;;;;;;2.90;1.20;;;8.30;99.90;;;;;;5053834;28;20471;-80
2022/01/30 08:02:57;;;;;;;7.30;1.47;;;8.30;99.90;;;;;;5050803;28;20986;-80
2022/01/30 08:05:26;;;;;;;2.83;1.40;;;8.40;99.90;;;;;;5058755;28;20812;-81
2022/01/30 08:07:54;;;;;;;3.30;1.17;;;8.40;99.90;;;;;;5041548;28;20480;-81
2022/01/30 08:10:22;;;;;;;3.10;1.50;;;8.40;99.90;;;;;;5043630;28;20454;-81
2022/01/30 08:12:50;;;;;;;5.77;1.37;;;8.40;99.90;;;;;;5040559;28;20457;-81
2022/01/30 08:15:20;;;;;;;4.60;1.20;;;8.40;99.90;;;;;;5054181;28;20513;-80
2022/01/30 08:17:48;;;;;;;4.83;1.27;;;8.40;99.90;;;;;;5051049;28;20480;-79
2022/01/30 08:20:17;;;;;;;1.83;1.30;;;8.40;99.90;;;;;;5049756;28;20984;-80
2022/01/30 08:22:49;;;;;;;11.33;2.93;;;8.80;99.90;;;;;;5045992;28;20476;-82
2022/01/30 08:25:17;;;;;;;4.30;1.77;;;8.60;99.90;;;;;;5054940;28;20450;-80
2022/01/30 08:27:46;;;;;;;3.23;1.30;;;8.60;99.90;;;;;;5051263;28;20483;-79
2022/01/30 08:30:14;;;;;;;2.50;1.50;;;8.70;99.90;;;;;;5045977;28;20989;-80
2022/01/30 08:32:46;;;;;;;5.17;2.00;;;8.80;99.90;;;;;;5044638;28;21021;-80
2022/01/30 08:35:15;;;;;;;3.90;1.67;;;8.90;99.90;;;;;;5052276;28;20459;-81
2022/01/30 08:37:44;;;;;;;7.57;1.43;;;8.90;99.90;;;;;;5051857;28;20467;-80
2022/01/30 08:40:14;;;;;;;6.47;1.70;;;8.90;99.90;;;;;;5038369;28;20470;-80
2022/01/30 08:42:43;;;;;;;3.63;1.50;;;9.00;99.90;;;;;;5043805;28;20447;-80
2022/01/30 08:45:12;;;;;;;1.90;1.10;;;9.10;99.90;;;;;;5048899;28;20497;-80
2022/01/30 08:47:42;;;;;;;3.73;1.17;;;9.10;99.90;;;;;;5050749;28;20884;-79
2022/01/30 08:50:13;;;;;;;4.30;1.50;;;9.20;99.90;;;;;;5052911;28;20455;-81
2022/01/30 08:52:42;;;;;;;4.10;1.50;;;9.30;99.90;;;;;;5049532;28;20478;-80
2022/01/30 08:55:12;;;;;;;1.33;1.07;;;9.40;99.90;;;;;;5045324;28;20462;-80
2022/01/30 08:57:41;;;;;;;3.90;1.10;;;9.60;99.90;;;;;;5048862;28;21013;-81
2022/01/30 09:00:13;;;;;;;2.90;1.50;;;9.60;99.90;;;;;;5048805;28;20535;-80
2022/01/30 09:02:42;;;;;;;7.47;1.40;;;9.70;99.90;;;;;;5041620;28;20505;-81
2022/01/30 09:05:12;;;;;;;7.13;1.30;;;9.90;99.90;;;;;;5045443;28;20451;-80
2022/01/30 09:07:41;;;;;;;2.00;1.10;;;9.90;99.90;;;;;;5045578;28;20533;-82
2022/01/30 09:10:12;;;;;;;5.53;1.53;;;10.00;99.90;;;;;;5048523;28;20479;-80
2022/01/30 09:12:40;;;;;;;2.23;1.10;;;10.00;99.90;;;;;;5045807;28;20582;-80
2022/01/30 09:15:13;;;;;;;4.40;1.37;;;10.00;99.90;;;;;;5053536;28;20472;-80
2022/01/30 09:17:42;;;;;;;2.70;1.17;;;10.00;99.90;;;;;;5047859;28;20479;-80
2022/01/30 09:20:13;;;;;;;3.50;1.10;;;10.10;99.90;;;;;;5062574;28;20501;-81
2022/01/30 09:22:44;;;;;;;3.97;1.73;;;10.10;99.90;;;;;;5061695;28;20454;-80
2022/01/30 09:25:13;;;;;;;5.23;1.17;;;10.20;99.90;;;;;;5050415;28;20506;-81
2022/01/30 09:27:41;;;;;;;8.60;1.23;;;10.20;99.90;;;;;;5051704;28;20464;-80
2022/01/30 09:30:11;;;;;;;5.23;1.40;;;10.20;99.90;;;;;;5047371;28;20440;-80
2022/01/30 09:32:40;;;;;;;3.03;1.30;;;10.30;99.90;;;;;;5038263;28;20560;-80
2022/01/30 09:35:09;;;;;;;5.27;1.70;;;10.30;99.90;;;;;;5044732;28;20452;-80
2022/01/30 09:37:39;;;;;;;6.20;2.00;;;10.30;99.90;;;;;;5044047;28;20455;-80
2022/01/30 09:40:09;;;;;;;2.97;1.80;;;10.40;99.90;;;;;;5046230;28;20212;-80
2022/01/30 09:42:43;;;;;;;4.50;2.40;;;10.40;99.90;;;;;;5047470;28;20487;-79
2022/01/30 09:45:13;;;;;;;3.30;1.33;;;10.50;99.90;;;;;;5037178;28;20459;-79
2022/01/30 09:47:41;;;;;;;3.20;1.10;;;10.50;99.90;;;;;;5044968;28;20481;-79
2022/01/30 09:50:11;;;;;;;2.20;1.27;;;10.90;99.90;;;;;;5038924;28;20457;-79
2022/01/30 09:52:40;;;;;;;2.40;1.23;;;10.70;99.90;;;;;;5046807;28;20481;-80
2022/01/30 09:55:10;;;;;;;3.60;1.23;;;10.70;99.90;;;;;;5040678;28;20878;-79
2022/01/30 09:57:40;;;;;;;4.80;1.30;;;10.60;99.90;;;;;;5042865;28;20471;-79
2022/01/30 10:00:10;;;;;;;5.20;2.30;;;10.70;99.90;;;;;;5041029;28;20458;-79
2022/01/30 10:02:41;;;;;;;3.53;1.20;;;10.50;99.90;;;;;;5043281;28;20451;-78
2022/01/30 10:05:12;;;;;;;3.13;1.20;;;10.80;99.90;;;;;;5044472;28;20835;-79
2022/01/30 10:07:49;;;;;;;2.83;1.13;;;10.40;99.90;;;;;;5042937;28;20476;-78
2022/01/30 10:10:21;;;;;;;4.40;1.40;;;10.50;99.90;;;;;;5051727;28;20467;-76
2022/01/30 10:13:07;;;;;;;6.30;1.30;;;10.80;99.90;;;;;;5040193;28;20924;-79
2022/01/30 10:15:52;;;;;;;3.20;1.20;;;11.00;99.90;;;;;;5040254;28;20472;-79
2022/01/30 10:18:21;;;;;;;1.50;1.10;;;11.20;99.90;;;;;;5038960;28;21051;-78
2022/01/30 10:20:50;;;;;;;5.10;1.70;;;11.30;99.90;;;;;;5048564;28;20874;-78
2022/01/30 10:23:20;;;;;;;2.33;1.50;;;11.30;99.90;;;;;;5053638;28;20452;-78
2022/01/30 10:25:53;;;;;;;5.93;1.40;;;11.30;99.90;;;;;;5036620;28;20452;-79
2022/01/30 10:28:27;;;;;;;4.32;1.30;;;11.00;99.90;;;;;;5043521;28;21054;-79
2022/01/30 10:30:57;;;;;;;2.10;1.20;;;10.80;99.90;;;;;;5038999;28;20197;-77
2022/01/30 10:33:41;;;;;;;3.40;1.40;;;10.70;99.90;;;;;;5045204;28;20490;-79
2022/01/30 10:36:10;;;;;;;2.10;1.50;;;10.70;99.90;;;;;;5039570;28;20456;-80
2022/01/30 10:38:41;;;;;;;2.60;1.07;;;10.70;99.90;;;;;;5047069;28;20470;-79
2022/01/30 10:41:15;;;;;;;3.90;1.60;;;10.50;99.90;;;;;;5043322;28;20482;-80
2022/01/30 10:43:52;;;;;;;3.40;1.20;;;10.50;99.90;;;;;;5047646;28;21057;-79
2022/01/30 10:46:22;;;;;;;2.43;1.30;;;10.50;99.90;;;;;;5042336;28;20469;-79
2022/01/30 10:48:52;;;;;;;5.30;1.30;;;10.60;99.90;;;;;;5047024;28;20452;-79
2022/01/30 10:51:20;;;;;;;3.10;1.30;;;10.60;99.90;;;;;;5038474;28;20460;-80
2022/01/30 10:53:51;;;;;;;1.63;1.20;;;10.90;99.90;;;;;;5047365;28;20483;-78
2022/01/30 10:56:20;;;;;;;3.47;1.07;;;10.60;99.90;;;;;;5039337;28;20455;-79
2022/01/30 10:59:08;;;;;;;4.00;1.17;;;10.60;99.90;;;;;;5043314;28;20468;-78
2022/01/30 11:01:37;;;;;;;3.97;1.93;;;10.60;99.90;;;;;;5039405;28;20448;-78
2022/01/30 11:04:07;;;;;;;3.77;1.50;;;10.50;99.90;;;;;;5056137;28;20975;-78
2022/01/30 11:06:39;;;;;;;5.37;1.30;;;10.40;99.90;;;;;;5043968;28;20529;-79
2022/01/30 11:09:14;;;;;;;2.63;1.33;;;10.60;99.90;;;;;;5044902;28;20857;-79
2022/01/30 11:11:47;;;;;;;3.50;1.57;;;10.40;99.90;;;;;;5042006;28;20524;-79
2022/01/30 11:14:20;;;;;;;2.67;1.27;;;10.40;99.90;;;;;;5039302;28;21056;-79
2022/01/30 11:16:59;;;;;;;6.00;1.40;;;10.30;99.90;;;;;;5042185;28;20467;-79
2022/01/30 11:19:27;;;;;;;4.20;2.10;;;10.20;99.90;;;;;;5048471;28;20533;-79
2022/01/30 11:22:00;;;;;;;2.83;1.50;;;10.20;99.90;;;;;;5047064;28;20450;-79
2022/01/30 11:24:30;;;;;;;5.13;1.33;;;10.10;99.90;;;;;;5047622;28;20458;-79
2022/01/30 11:26:59;;;;;;;2.27;1.20;;;10.10;99.90;;;;;;5039050;28;20469;-79
2022/01/30 11:29:30;;;;;;;2.90;1.20;;;10.10;99.90;;;;;;5041161;28;20452;-79
2022/01/30 11:31:58;;;;;;;5.03;1.50;;;10.00;99.90;;;;;;5045233;28;20465;-79
2022/01/30 11:34:29;;;;;;;4.00;1.20;;;9.90;99.90;;;;;;5048263;28;20903;-79
2022/01/30 11:36:58;;;;;;;5.07;1.10;;;10.00;99.90;;;;;;5047838;28;20491;-79
2022/01/30 11:39:26;;;;;;;3.63;1.23;;;10.20;99.90;;;;;;5043839;28;20468;-79
2022/01/30 11:42:14;;;;;;;3.43;1.10;;;10.30;99.90;;;;;;5042793;28;20456;-79
2022/01/30 11:44:44;;;;;;;1.90;1.43;;;10.40;99.90;;;;;;5054866;28;20471;-79
2022/01/30 11:47:24;;;;;;;2.70;1.27;;;10.40;99.90;;;;;;5044901;28;21034;-79
2022/01/30 11:50:08;;;;;;;1.83;1.40;;;10.40;99.90;;;;;;5043285;28;20471;-78
2022/01/30 11:53:09;;;;;;;3.50;1.43;;;10.40;99.90;;;;;;5046780;28;20505;-78
2022/01/30 11:56:01;;;;;;;1.77;1.47;;;10.40;99.90;;;;;;4966349;28;20458;-79
2022/01/30 11:58:58;;;;;;;3.57;1.10;;;10.30;99.90;;;;;;4959164;28;20494;-79
2022/01/30 12:01:36;;;;;;;1.60;1.47;;;10.30;99.90;;;;;;5021089;28;20464;-79
2022/01/30 12:04:17;;;;;;;7.03;1.27;;;10.40;99.90;;;;;;5041783;28;20877;-79
2022/01/30 12:06:50;;;;;;;5.17;1.40;;;10.50;99.90;;;;;;5047998;28;20483;-79
2022/01/30 12:09:38;;;;;;;4.27;1.30;;;10.50;99.90;;;;;;5048973;28;21132;-79
2022/01/30 12:12:10;;;;;;;3.83;1.13;;;10.60;99.90;;;;;;5050447;28;20479;-79
2022/01/30 12:14:49;;;;;;;2.47;1.00;;;10.80;99.90;;;;;;5041692;28;20467;-79
2022/01/30 12:17:46;;;;;;;3.63;1.30;;;10.90;99.90;;;;;;5048492;28;20474;-79
2022/01/30 12:20:14;;;;;;;5.53;1.30;;;11.00;99.90;;;;;;5042099;28;20457;-79
2022/01/30 12:22:43;;;;;;;2.20;1.03;;;11.40;99.90;;;;;;5048729;28;20875;-79
2022/01/30 12:25:36;;;;;;;2.23;1.00;;;11.30;99.90;;;;;;5044420;28;20448;-80
2022/01/30 12:28:10;;;;;;;4.90;1.40;;;11.50;99.90;;;;;;5042780;28;20533;-79
2022/01/30 12:30:53;;;;;;;2.43;0.90;;;11.50;99.90;;;;;;5046581;28;20448;-79
2022/01/30 12:33:40;;;;;;;3.70;1.30;;;11.50;99.90;;;;;;5043276;28;21298;-80
2022/01/30 12:36:22;;;;;;;5.30;1.20;;;11.50;99.90;;;;;;5041132;28;20494;-79
2022/01/30 12:39:03;;;;;;;2.33;1.20;;;11.50;99.90;;;;;;5043389;28;20466;-78
2022/01/30 12:41:33;;;;;;;5.80;1.20;;;11.50;99.90;;;;;;5048506;28;20463;-79
2022/01/30 12:44:04;;;;;;;4.77;1.27;;;11.50;99.90;;;;;;5044325;28;20829;-79
2022/01/30 12:46:37;;;;;;;2.83;1.10;;;11.60;99.90;;;;;;5041796;28;20456;-79
2022/01/30 12:49:09;;;;;;;6.83;1.10;;;11.70;99.90;;;;;;5035819;28;20453;-79
2022/01/30 12:51:40;;;;;;;2.47;1.60;;;11.70;99.90;;;;;;5050093;28;20458;-80
2022/01/30 12:54:09;;;;;;;3.33;1.60;;;11.80;99.90;;;;;;5044976;28;20484;-79
2022/01/30 12:56:37;;;;;;;1.93;1.40;;;12.00;99.90;;;;;;5041390;28;20471;-79
2022/01/30 12:59:07;;;;;;;4.80;1.20;;;12.10;99.90;;;;;;5045115;28;20461;-80
2022/01/30 13:01:40;;;;;;;5.30;1.27;;;12.00;99.90;;;;;;5043580;28;21280;-77
2022/01/30 13:04:11;;;;;;;3.80;1.10;;;11.90;99.90;;;;;;5057116;28;20581;-77
2022/01/30 13:06:42;;;;;;;1.30;1.20;;;12.10;99.90;;;;;;5044071;28;20492;-79
2022/01/30 13:09:12;;;;;;;2.77;1.20;;;12.20;99.90;;;;;;5045794;28;20454;-79
2022/01/30 13:11:40;;;;;;;6.37;1.20;;;12.10;99.90;;;;;;5053429;28;21006;-79
2022/01/30 13:14:10;;;;;;;3.07;1.20;;;12.10;99.90;;;;;;5050939;28;20469;-79
2022/01/30 13:16:42;;;;;;;3.63;1.20;;;12.10;99.90;;;;;;5041541;28;20490;-79
2022/01/30 13:19:12;;;;;;;2.70;1.00;;;12.20;99.90;;;;;;5040396;28;20491;-79
2022/01/30 13:21:46;;;;;;;1.93;0.97;;;12.20;99.90;;;;;;5046414;28;20451;-80
2022/01/30 13:24:18;;;;;;;5.30;1.33;;;12.20;99.90;;;;;;5045456;28;20447;-80
2022/01/30 13:26:48;;;;;;;3.83;1.10;;;12.20;99.90;;;;;;5042513;28;21380;-80
2022/01/30 13:29:19;;;;;;;4.20;1.37;;;12.10;99.90;;;;;;5039346;28;20452;-79
2022/01/30 13:31:50;;;;;;;3.23;1.20;;;12.10;99.90;;;;;;5037285;28;20471;-79
2022/01/30 13:34:25;;;;;;;3.03;1.10;;;12.10;99.90;;;;;;5045009;28;21029;-80
2022/01/30 13:37:02;;;;;;;4.40;1.27;;;12.20;99.90;;;;;;5044184;28;20551;-80
2022/01/30 13:39:39;;;;;;;2.80;1.10;;;12.10;99.90;;;;;;5057923;28;20460;-80
2022/01/30 13:48:13;;;;;;;3.23;0.90;;;12.10;99.90;;;;;;5048053;28;20471;-80
2022/01/30 13:50:44;;;;;;;8.33;1.10;;;12.10;99.40;;;;;;5048323;28;20462;-79
2022/01/30 13:53:14;;;;;;;3.07;1.07;;;12.00;97.80;;;;;;5046694;28;20506;-80